GVQ weather

Genesee County Airport
Batavia, New York, United States

Public forecast

Using degrees Fahrenheit for public forecast. Weather courtesy of forecast.io.

METAR (pilot weather report)

Closest report is Greater Rochester International Airport, 22.3 nm (41.4 km) ENE. Retrieved 2019/06/19 09:54 UTC (10 minutes ago):

KROC 190954Z 22004KT 10SM FEW070 SCT180 SCT250 14/13 A2984 RMK AO2 SLP106 ACC SE T01440128

TAF (pilot weather forecast)

Closest forecast is Greater Rochester International Airport, 22.3 nm (41.4 km) ENE. Retrieved 2019/06/19 06:34 UTC (4 hours ago):

TAF KROC 190532Z 1906/2006 VRB03KT P6SM FEW200 FM191100 VRB03KT P6SM SCT150 FM191500 VRB03KT P6SM FEW035 BKN100 FM192300 03007KT P6SM SCT080 FM200300 VRB03KT P6SM SCT045